Time;durP1;ratioP1;P1;durP2;ratioP2;P2;SDS_P1;SDS_P2;PMS_P1;PMS_P2;Temp;Humidity;BMP_temperature;BMP_pressure;BME280_temperature;BME280_humidity;BME280_pressure;Samples;Min_cycle;Max_cycle;Signal;HPM_P1;HPM_P2
2022/03/04 00:02:06;;;;;;;28.98;13.55;;;;;;;3.72;74.23;101889.91;5051626;28;20040;-56
2022/03/04 00:04:34;;;;;;;27.35;13.27;;;;;;;3.72;73.37;101889.06;5051944;28;20098;-56
2022/03/04 00:06:59;;;;;;;27.27;13.52;;;;;;;3.71;73.39;101900.53;5053793;28;20119;-57
2022/03/04 00:09:24;;;;;;;28.73;13.63;;;;;;;3.67;74.94;101902.53;5033376;28;20112;-57
2022/03/04 00:11:50;;;;;;;29.80;13.73;;;;;;;3.67;74.71;101905.16;5054080;28;20032;-55
2022/03/04 00:14:19;;;;;;;26.83;13.63;;;;;;;3.62;73.76;101915.16;5052298;28;20115;-56
2022/03/04 00:16:44;;;;;;;27.73;13.30;;;;;;;3.58;73.93;101913.63;5047723;28;20036;-56
2022/03/04 00:19:10;;;;;;;31.77;13.90;;;;;;;3.51;74.67;101904.34;5044358;28;20701;-56
2022/03/04 00:22:02;;;;;;;27.58;12.65;;;;;;;3.56;73.05;101926.06;5053840;28;20039;-56
2022/03/04 00:24:27;;;;;;;;;;;;;;;3.56;72.73;101920.78;5042976;28;20048;-56
2022/03/04 00:26:52;;;;;;;28.40;12.57;;;;;;;3.51;74.47;101922.84;5054454;28;19931;-56
2022/03/04 00:29:17;;;;;;;28.17;13.57;;;;;;;3.48;74.83;101920.38;5052026;28;20079;-56
2022/03/04 00:31:43;;;;;;;32.40;13.88;;;;;;;3.46;74.95;101922.25;5053517;28;20029;-55
2022/03/04 00:34:09;;;;;;;29.48;14.05;;;;;;;3.39;74.60;101920.91;5055439;28;20243;-56
2022/03/04 00:36:36;;;;;;;31.40;14.65;;;;;;;3.38;75.71;101924.47;5043047;28;20509;-58
2022/03/04 00:39:04;;;;;;;31.35;14.60;;;;;;;3.34;75.32;101929.97;5048285;28;20108;-56
2022/03/04 00:41:29;;;;;;;27.70;13.60;;;;;;;3.31;76.56;101930.13;5052811;28;20486;-56
2022/03/04 00:43:54;;;;;;;30.85;13.70;;;;;;;3.29;75.64;101936.41;5053834;28;20036;-56
2022/03/04 00:46:20;;;;;;;28.70;13.23;;;;;;;3.30;78.43;101932.84;5051228;28;20025;-57
2022/03/04 00:48:45;;;;;;;32.22;13.23;;;;;;;3.27;76.20;101938.31;5022809;28;20032;-56
2022/03/04 00:51:12;;;;;;;27.15;13.00;;;;;;;3.22;76.18;101935.91;5043668;28;20024;-56
2022/03/04 00:53:37;;;;;;;28.63;13.95;;;;;;;3.20;76.78;101924.59;5046736;28;20090;-56
2022/03/04 00:56:06;;;;;;;29.80;14.48;;;;;;;3.23;77.60;101937.63;5049842;28;20028;-56
2022/03/04 00:58:31;;;;;;;28.25;13.60;;;;;;;3.13;76.92;101931.16;5045499;28;20112;-56
2022/03/04 01:00:56;;;;;;;33.35;14.00;;;;;;;3.12;77.11;101932.09;5051859;28;20108;-56
2022/03/04 01:03:21;;;;;;;33.35;14.25;;;;;;;3.07;77.94;101932.38;5047890;28;20052;-56
2022/03/04 01:05:47;;;;;;;31.83;13.85;;;;;;;3.06;77.57;101935.09;5054101;28;20028;-56
2022/03/04 01:08:12;;;;;;;28.63;13.88;;;;;;;3.02;78.44;101944.97;5049492;28;20101;-56
2022/03/04 01:10:38;;;;;;;30.23;14.43;;;;;;;3.01;78.25;101947.69;5050468;28;20427;-56
2022/03/04 01:13:04;;;;;;;30.25;15.15;;;;;;;2.98;78.84;101946.91;5048784;28;20020;-56
2022/03/04 01:15:30;;;;;;;30.98;13.45;;;;;;;2.97;79.29;101944.34;5039042;28;20497;-57
2022/03/04 01:17:55;;;;;;;30.48;14.00;;;;;;;2.95;78.39;101938.31;5051840;28;20028;-56
2022/03/04 01:20:21;;;;;;;28.15;13.80;;;;;;;2.96;79.88;101945.28;5037462;28;20099;-56
2022/03/04 01:22:47;;;;;;;32.05;14.02;;;;;;;2.91;78.82;101942.06;5051002;28;20603;-56
2022/03/04 01:25:12;;;;;;;27.90;13.68;;;;;;;2.90;79.50;101940.34;5048078;28;20445;-56
2022/03/04 01:27:37;;;;;;;29.20;14.05;;;;;;;2.85;78.39;101937.09;5037955;28;20550;-56
2022/03/04 01:30:05;;;;;;;30.67;14.30;;;;;;;2.81;80.75;101936.44;5042176;28;20025;-56
2022/03/04 01:32:30;;;;;;;33.47;14.73;;;;;;;2.79;80.98;101940.94;5033857;28;20029;-56
2022/03/04 01:34:56;;;;;;;32.70;15.00;;;;;;;2.74;79.58;101932.44;5054052;28;20548;-56
2022/03/04 01:37:21;;;;;;;30.50;14.77;;;;;;;2.71;81.08;101936.06;5049138;28;20104;-56
2022/03/04 01:39:46;;;;;;;30.38;15.10;;;;;;;2.65;79.44;101930.28;5053516;28;20059;-56
2022/03/04 01:42:12;;;;;;;38.63;15.10;;;;;;;2.59;80.33;101918.28;5032748;28;20426;-56
2022/03/04 01:44:37;;;;;;;32.90;14.73;;;;;;;2.57;80.90;101923.63;5052007;28;20040;-56
2022/03/04 01:47:03;;;;;;;29.92;15.02;;;;;;;2.57;81.42;101922.78;5035256;28;20132;-55
2022/03/04 01:49:28;;;;;;;32.78;14.15;;;;;;;2.53;80.97;101919.47;5036671;28;20062;-56
2022/03/04 01:51:54;;;;;;;29.75;14.82;;;;;;;2.49;80.63;101923.19;5040211;28;20247;-56
2022/03/04 01:54:19;;;;;;;35.22;14.93;;;;;;;2.45;81.05;101926.09;5050901;28;20588;-56
2022/03/04 01:56:44;;;;;;;32.70;15.32;;;;;;;2.41;82.00;101922.75;5051108;28;20020;-56
2022/03/04 01:59:10;;;;;;;32.65;14.40;;;;;;;2.36;81.23;101928.28;5052244;28;20209;-55
2022/03/04 02:01:35;;;;;;;33.10;14.68;;;;;;;2.30;81.77;101919.84;5042969;28;20469;-56
2022/03/04 02:04:00;;;;;;;31.45;14.18;;;;;;;2.31;82.73;101929.44;5050705;28;20024;-56
2022/03/04 02:06:26;;;;;;;27.27;13.88;;;;;;;2.31;83.09;101932.94;5043607;28;20490;-56
2022/03/04 02:08:51;;;;;;;33.85;14.27;;;;;;;2.25;82.43;101930.63;5052160;28;20048;-56
2022/03/04 02:11:16;;;;;;;29.90;14.32;;;;;;;2.20;82.64;101933.47;5045882;28;20040;-56
2022/03/04 02:13:45;;;;;;;33.28;14.65;;;;;;;2.17;83.79;101935.44;5032836;28;20059;-56
2022/03/04 02:16:36;;;;;;;33.03;15.48;;;;;;;2.10;82.64;101934.88;5025259;28;20029;-56
2022/03/04 02:19:02;;;;;;;;;;;;;;;2.13;81.44;101924.19;5048064;28;20120;-56
2022/03/04 02:21:29;;;;;;;35.40;13.90;;;;;;;2.04;82.50;101919.41;5051836;28;20570;-56
2022/03/04 02:23:54;;;;;;;33.10;14.95;;;;;;;1.99;83.46;101922.28;5042506;28;20024;-56
2022/03/04 02:26:19;;;;;;;32.45;14.98;;;;;;;1.96;84.15;101926.84;5042228;28;20377;-56
2022/03/04 02:28:45;;;;;;;31.83;14.93;;;;;;;1.95;84.63;101919.88;5038755;28;20036;-56
2022/03/04 02:31:15;;;;;;;37.30;16.15;;;;;;;1.95;84.96;101922.50;5035860;28;20717;-56
2022/03/04 02:33:41;;;;;;;33.50;15.35;;;;;;;1.93;85.08;101921.75;5044473;28;20062;-56
2022/03/04 02:36:06;;;;;;;34.17;14.68;;;;;;;1.91;85.61;101924.44;5042233;28;20052;-56
2022/03/04 02:38:31;;;;;;;32.83;15.13;;;;;;;1.84;84.96;101920.44;5049276;28;20063;-56
2022/03/04 02:40:56;;;;;;;35.33;15.25;;;;;;;1.85;85.51;101925.63;5042075;28;20175;-56
2022/03/04 02:43:22;;;;;;;37.70;15.05;;;;;;;1.78;84.96;101911.06;5056158;28;20479;-56
2022/03/04 02:45:47;;;;;;;41.38;15.90;;;;;;;1.78;86.18;101915.47;5054517;28;20020;-56
2022/03/04 02:48:12;;;;;;;32.38;16.00;;;;;;;1.76;86.22;101918.16;5055128;28;20060;-56
2022/03/04 02:50:38;;;;;;;37.28;15.45;;;;;;;1.72;85.92;101913.16;5045320;28;20115;-56
2022/03/04 02:53:03;;;;;;;31.20;15.15;;;;;;;1.70;86.70;101912.34;5036220;28;20029;-56
2022/03/04 02:55:28;;;;;;;35.85;15.85;;;;;;;1.66;86.58;101909.03;5036380;28;20098;-56
2022/03/04 02:57:53;;;;;;;32.53;15.52;;;;;;;1.67;87.18;101910.75;5055827;28;20115;-56
2022/03/04 03:00:19;;;;;;;36.13;15.80;;;;;;;1.64;87.33;101911.75;5039030;28;20037;-56
2022/03/04 03:02:44;;;;;;;36.72;16.17;;;;;;;1.62;87.59;101916.25;5022121;28;20024;-56
2022/03/04 03:05:10;;;;;;;33.92;15.60;;;;;;;1.58;86.90;101914.69;5037197;28;20503;-55
2022/03/04 03:07:36;;;;;;;36.60;15.77;;;;;;;1.58;87.98;101913.81;5026050;28;20462;-56
2022/03/04 03:10:04;;;;;;;37.17;15.88;;;;;;;1.56;87.83;101907.78;5042327;28;20032;-56
2022/03/04 03:12:29;;;;;;;37.38;15.93;;;;;;;1.54;88.94;101915.75;5052873;28;20108;-56
2022/03/04 03:14:55;;;;;;;35.78;16.33;;;;;;;1.49;88.69;101905.47;5051520;28;20013;-56
2022/03/04 03:17:20;;;;;;;36.28;16.65;;;;;;;1.45;87.66;101901.28;5035816;28;20120;-56
2022/03/04 03:19:46;;;;;;;35.92;16.27;;;;;;;1.43;88.07;101910.19;5054167;28;20074;-56
2022/03/04 03:22:12;;;;;;;35.20;15.48;;;;;;;1.40;87.80;101905.91;5055097;28;20052;-56
2022/03/04 03:24:37;;;;;;;33.67;15.57;;;;;;;1.39;88.73;101906.88;5055104;28;21001;-56
2022/03/04 03:27:03;;;;;;;37.38;16.65;;;;;;;1.38;89.14;101904.31;5040589;28;20044;-56
2022/03/04 03:29:28;;;;;;;36.97;16.85;;;;;;;1.35;88.45;101907.94;5045032;28;20094;-56
2022/03/04 03:31:53;;;;;;;37.90;15.98;;;;;;;1.34;88.24;101906.25;5048807;28;20024;-56
2022/03/04 03:34:18;;;;;;;36.95;15.88;;;;;;;1.31;88.40;101914.28;5040999;28;20393;-56
2022/03/04 03:36:44;;;;;;;36.42;16.60;;;;;;;1.30;89.53;101912.56;5041523;28;20025;-56
2022/03/04 03:39:09;;;;;;;38.33;17.02;;;;;;;1.29;89.11;101916.09;5040538;28;20024;-56
2022/03/04 03:41:35;;;;;;;37.38;16.77;;;;;;;1.27;89.71;101917.97;5055647;28;20060;-56
2022/03/04 03:44:00;;;;;;;35.20;16.73;;;;;;;1.27;90.35;101916.22;5053781;28;20057;-56
2022/03/04 03:46:26;;;;;;;40.67;16.73;;;;;;;1.23;89.86;101922.53;5034579;28;20101;-56
2022/03/04 03:48:51;;;;;;;38.67;16.40;;;;;;;1.22;90.04;101914.72;5048910;28;20503;-56
2022/03/04 03:51:16;;;;;;;35.78;16.13;;;;;;;1.20;90.26;101920.03;5050544;28;20189;-56
2022/03/04 03:53:42;;;;;;;38.45;16.05;;;;;;;1.22;91.03;101919.97;5043630;28;20040;-56
2022/03/04 03:56:07;;;;;;;38.50;17.00;;;;;;;1.21;91.02;101920.91;5054639;28;20364;-56
2022/03/04 03:58:33;;;;;;;37.08;17.13;;;;;;;1.19;90.83;101921.00;5043981;28;20036;-56
2022/03/04 04:00:58;;;;;;;40.30;17.15;;;;;;;1.16;90.45;101925.56;5050796;28;20033;-56
2022/03/04 04:03:23;;;;;;;39.17;16.85;;;;;;;1.14;90.22;101924.75;5021399;28;20051;-56
2022/03/04 04:05:49;;;;;;;43.03;17.05;;;;;;;1.07;89.92;101927.69;5045515;28;20055;-56
2022/03/04 04:08:14;;;;;;;37.40;16.85;;;;;;;1.03;90.87;101923.47;5054221;28;20028;-56
2022/03/04 04:10:39;;;;;;;36.35;16.98;;;;;;;1.05;91.41;101924.28;5055155;28;20194;-56
2022/03/04 04:13:04;;;;;;;40.17;16.33;;;;;;;1.04;90.56;101930.47;5054519;28;20489;-56
2022/03/04 04:15:30;;;;;;;42.35;17.63;;;;;;;1.04;90.76;101940.13;5053660;28;20046;-56
2022/03/04 04:17:55;;;;;;;41.55;17.67;;;;;;;1.02;91.25;101934.94;5054998;28;20052;-56
2022/03/04 04:20:21;;;;;;;39.60;17.45;;;;;;;1.00;91.05;101933.31;5046047;28;20031;-56
2022/03/04 04:22:46;;;;;;;40.10;17.33;;;;;;;0.99;90.97;101937.72;5039543;28;20285;-57
2022/03/04 04:25:11;;;;;;;39.42;17.58;;;;;;;0.97;91.39;101941.31;5035742;28;20116;-56
2022/03/04 04:27:37;;;;;;;44.67;18.15;;;;;;;0.93;91.65;101938.00;5036950;28;20031;-56
2022/03/04 04:30:03;;;;;;;42.42;17.48;;;;;;;0.90;91.87;101938.13;5053498;28;20074;-56
2022/03/04 04:32:28;;;;;;;44.55;17.73;;;;;;;0.90;92.90;101939.00;5049267;28;20036;-56
2022/03/04 04:34:53;;;;;;;39.92;17.88;;;;;;;0.86;92.08;101939.22;5048427;28;20052;-55
2022/03/04 04:37:19;;;;;;;42.08;17.60;;;;;;;0.86;92.81;101947.09;5044777;28;20466;-56
2022/03/04 04:39:44;;;;;;;41.90;18.23;;;;;;;0.87;92.73;101943.56;5044842;28;20544;-56
2022/03/04 04:42:09;;;;;;;42.22;18.90;;;;;;;0.82;91.67;101942.91;5042779;28;20057;-55
2022/03/04 04:44:35;;;;;;;44.88;17.92;;;;;;;0.80;92.59;101955.25;5040724;28;20048;-56
2022/03/04 04:47:00;;;;;;;41.70;17.33;;;;;;;0.78;92.97;101951.84;5019418;28;20028;-56
2022/03/04 04:49:26;;;;;;;38.38;17.77;;;;;;;0.77;93.34;101950.16;5035454;28;20024;-56
2022/03/04 04:51:52;;;;;;;42.83;17.50;;;;;;;0.76;93.54;101951.91;5053799;28;20029;-55
2022/03/04 04:54:18;;;;;;;43.85;18.30;;;;;;;0.73;92.58;101944.16;5046025;28;20039;-56
2022/03/04 04:56:44;;;;;;;38.35;17.55;;;;;;;0.73;94.10;101946.78;5046605;28;20562;-56
2022/03/04 04:59:10;;;;;;;41.88;18.15;;;;;;;0.71;93.71;101938.13;5044421;28;20048;-56
2022/03/04 05:01:35;;;;;;;43.65;18.75;;;;;;;0.66;92.60;101942.75;5050262;28;20118;-56
2022/03/04 05:04:00;;;;;;;39.22;17.88;;;;;;;0.68;93.90;101940.91;5055501;28;20107;-56
2022/03/04 05:06:26;;;;;;;43.17;18.20;;;;;;;0.64;93.08;101942.81;5055402;28;20382;-56
2022/03/04 05:08:51;;;;;;;40.97;18.35;;;;;;;0.64;93.60;101939.34;5046069;28;20104;-56
2022/03/04 05:11:16;;;;;;;42.03;18.20;;;;;;;0.63;93.83;101943.75;5044355;28;20041;-56
2022/03/04 05:13:41;;;;;;;44.72;18.38;;;;;;;0.62;93.74;101939.41;5054422;28;20392;-56
2022/03/04 05:16:07;;;;;;;46.00;19.92;;;;;;;0.59;93.78;101939.53;5035618;28;20047;-56
2022/03/04 05:18:32;;;;;;;45.45;18.67;;;;;;;0.61;94.89;101945.59;5054949;28;20029;-56
2022/03/04 05:20:58;;;;;;;41.58;17.88;;;;;;;0.58;93.96;101939.59;5052406;28;20078;-56
2022/03/04 05:24:06;;;;;;;44.17;18.10;;;;;;;0.57;94.38;101941.41;5046597;28;20435;-55
2022/03/04 05:26:11;;;;;;;41.97;18.50;;;;;;;0.55;94.16;101938.84;5041938;28;20461;-56
2022/03/04 05:28:36;;;;;;;47.35;19.60;;;;;;;0.53;94.95;101939.84;5049869;28;20025;-56
2022/03/04 05:31:02;;;;;;;51.40;19.35;;;;;;;0.52;94.97;101948.63;5036135;28;20116;-56
2022/03/04 05:33:27;;;;;;;45.13;19.05;;;;;;;0.51;94.57;101946.91;5036133;28;20239;-56
2022/03/04 05:35:52;;;;;;;45.63;18.27;;;;;;;0.49;94.84;101948.75;5045211;28;20570;-56
2022/03/04 05:38:18;;;;;;;42.67;19.23;;;;;;;0.46;95.32;101951.53;5048301;28;20418;-56
2022/03/04 05:40:43;;;;;;;45.75;18.42;;;;;;;0.43;95.08;101952.53;5048374;28;20082;-55
2022/03/04 05:43:08;;;;;;;40.88;18.67;;;;;;;0.40;95.12;101957.06;5043381;28;20028;-55
2022/03/04 05:45:34;;;;;;;47.63;20.08;;;;;;;0.36;95.79;101956.34;5046817;28;20056;-56
2022/03/04 05:47:59;;;;;;;48.38;19.25;;;;;;;0.34;95.92;101959.06;5050744;28;20181;-56
2022/03/04 05:50:24;;;;;;;46.40;19.17;;;;;;;0.32;95.75;101966.16;5048448;28;20340;-56
2022/03/04 05:52:50;;;;;;;44.33;18.88;;;;;;;0.32;96.21;101970.53;5048391;28;20044;-56
2022/03/04 05:55:16;;;;;;;42.67;18.92;;;;;;;0.28;95.80;101969.81;5053583;28;20115;-56
2022/03/04 05:57:41;;;;;;;44.63;19.60;;;;;;;0.28;96.28;101972.44;5035937;28;20168;-56
2022/03/04 06:00:07;;;;;;;44.42;19.50;;;;;;;0.27;96.59;101976.00;5053238;28;20079;-56
2022/03/04 06:02:33;;;;;;;48.65;18.65;;;;;;;0.27;96.47;101972.50;5043039;28;20441;-56
2022/03/04 06:04:59;;;;;;;45.70;19.08;;;;;;;0.26;96.79;101969.03;5044445;28;20176;-56
2022/03/04 06:07:24;;;;;;;44.88;19.33;;;;;;;0.27;97.58;101975.13;5052585;28;20054;-56
2022/03/04 06:09:49;;;;;;;44.40;19.95;;;;;;;0.22;96.35;101974.47;5052880;28;20044;-56
2022/03/04 06:12:15;;;;;;;47.00;20.33;;;;;;;0.19;96.74;101978.13;5051467;28;20028;-56
2022/03/04 06:14:40;;;;;;;49.58;20.08;;;;;;;0.17;96.91;101983.44;5042361;28;20578;-55
2022/03/04 06:17:05;;;;;;;50.92;20.05;;;;;;;0.16;97.55;101980.88;5042219;28;20043;-56
2022/03/04 06:19:31;;;;;;;43.88;19.88;;;;;;;0.12;97.90;101987.16;5056784;28;20024;-56
2022/03/04 06:21:56;;;;;;;51.25;19.17;;;;;;;0.15;97.99;101989.66;5052418;28;20343;-56
2022/03/04 06:24:22;;;;;;;44.80;19.88;;;;;;;0.16;98.38;101988.75;5055267;28;20035;-56
2022/03/04 06:26:47;;;;;;;47.88;19.30;;;;;;;0.17;98.44;101993.94;5020779;28;20029;-56
2022/03/04 06:29:12;;;;;;;54.63;20.42;;;;;;;0.16;98.25;101983.50;5023932;28;20040;-56
2022/03/04 06:31:37;;;;;;;45.10;20.10;;;;;;;0.16;97.98;101988.75;5055969;28;20485;-55
2022/03/04 06:34:03;;;;;;;46.28;20.33;;;;;;;0.18;98.95;101995.63;5050365;28;20045;-56
2022/03/04 06:36:28;;;;;;;52.25;20.77;;;;;;;0.20;98.84;101992.94;5049789;28;20363;-56
2022/03/04 06:38:54;;;;;;;45.05;20.25;;;;;;;0.20;98.91;101998.19;5047846;28;20444;-56
2022/03/04 06:41:19;;;;;;;48.13;20.15;;;;;;;0.20;98.75;101986.84;5056467;28;20107;-56
2022/03/04 06:43:45;;;;;;;52.70;21.25;;;;;;;0.24;99.05;102002.41;5048941;28;20075;-55
2022/03/04 06:46:10;;;;;;;46.45;20.23;;;;;;;0.24;98.14;101996.28;5047779;28;20177;-56
2022/03/04 06:48:36;;;;;;;53.55;20.48;;;;;;;0.26;98.11;102003.19;5045534;28;20021;-56
2022/03/04 06:51:03;;;;;;;49.85;19.85;;;;;;;0.29;99.00;102002.19;5055915;28;20115;-56
2022/03/04 06:53:28;;;;;;;47.92;20.38;;;;;;;0.31;99.71;102005.63;5046907;28;20075;-55
2022/03/04 06:55:53;;;;;;;48.47;20.95;;;;;;;0.33;98.84;102009.88;5048371;28;20024;-56
2022/03/04 06:58:19;;;;;;;54.47;21.33;;;;;;;0.34;98.76;102014.22;5054617;28;20088;-56
2022/03/04 07:00:44;;;;;;;47.17;20.48;;;;;;;0.37;98.94;102018.47;5055466;28;20116;-56
2022/03/04 07:03:10;;;;;;;47.35;20.17;;;;;;;0.41;98.94;102011.31;5050734;28;20044;-56
2022/03/04 07:05:36;;;;;;;52.10;21.40;;;;;;;0.42;99.55;102013.88;5052604;28;20029;-56
2022/03/04 07:08:02;;;;;;;52.22;21.02;;;;;;;0.44;99.64;102022.59;5050566;28;20035;-56
2022/03/04 07:10:28;;;;;;;51.50;21.33;;;;;;;0.46;99.94;102019.84;5050632;28;20036;-56
2022/03/04 07:12:53;;;;;;;50.83;21.05;;;;;;;0.50;99.57;102024.91;5047843;28;20036;-55
2022/03/04 07:15:19;;;;;;;50.67;21.63;;;;;;;0.54;99.00;102031.78;5054217;28;20530;-56
2022/03/04 07:17:45;;;;;;;52.35;20.42;;;;;;;0.58;99.04;102027.22;5054841;28;20059;-56
2022/03/04 07:20:11;;;;;;;51.00;21.00;;;;;;;0.63;98.96;102034.91;5043108;28;20033;-56
2022/03/04 07:22:37;;;;;;;49.60;21.20;;;;;;;0.67;99.17;102039.97;5053068;28;20487;-56
2022/03/04 07:25:04;;;;;;;49.22;21.60;;;;;;;0.72;98.89;102040.59;5049152;28;20028;-56
2022/03/04 07:27:29;;;;;;;55.80;20.90;;;;;;;0.80;99.78;102044.66;5032228;28;20394;-56
2022/03/04 07:29:54;;;;;;;62.15;21.40;;;;;;;0.85;98.77;102040.06;5055067;28;20576;-56
2022/03/04 07:32:21;;;;;;;49.83;20.52;;;;;;;0.92;98.77;102046.78;5049216;28;20762;-55
2022/03/04 07:34:46;;;;;;;52.22;21.10;;;;;;;0.98;98.10;102053.53;5051087;28;22673;-56
2022/03/04 07:37:11;;;;;;;44.58;19.92;;;;;;;1.06;98.13;102054.03;5048142;28;20131;-55
2022/03/04 07:39:37;;;;;;;50.67;21.20;;;;;;;1.14;97.89;102051.03;5045848;28;20418;-57
2022/03/04 07:42:04;;;;;;;51.72;21.50;;;;;;;1.23;98.08;102055.91;5035893;28;20450;-56
2022/03/04 07:44:30;;;;;;;48.28;20.60;;;;;;;1.32;97.49;102058.09;5052088;28;20495;-56
2022/03/04 07:46:55;;;;;;;55.70;21.88;;;;;;;1.41;96.27;102059.44;5033994;28;20108;-55
2022/03/04 07:49:20;;;;;;;49.60;20.35;;;;;;;1.47;95.79;102059.16;5041170;28;20041;-57
2022/03/04 07:51:47;;;;;;;49.05;21.15;;;;;;;1.54;96.09;102047.41;5044890;28;20025;-56
2022/03/04 07:54:12;;;;;;;49.25;21.30;;;;;;;1.59;95.10;102045.41;5035760;28;20075;-56
2022/03/04 07:56:38;;;;;;;51.72;21.20;;;;;;;1.69;94.90;102051.09;5019225;28;20056;-56
2022/03/04 07:59:03;;;;;;;52.22;21.48;;;;;;;1.75;94.31;102061.34;5035441;28;20130;-55
2022/03/04 08:01:28;;;;;;;48.13;21.77;;;;;;;1.82;94.21;102062.75;5036840;28;20437;-56
2022/03/04 08:03:54;;;;;;;52.00;20.85;;;;;;;1.83;94.10;102050.41;5046110;28;20090;-56
2022/03/04 08:06:19;;;;;;;54.53;21.77;;;;;;;1.95;94.32;102060.38;5034194;28;20631;-56
2022/03/04 08:08:45;;;;;;;49.92;21.10;;;;;;;2.01;94.09;102053.94;5053584;28;22213;-56
2022/03/04 08:11:10;;;;;;;51.45;21.33;;;;;;;2.09;93.49;102064.09;5054505;28;20065;-56
2022/03/04 08:13:36;;;;;;;52.95;21.13;;;;;;;2.16;93.21;102058.44;5055082;28;20111;-55
2022/03/04 08:16:02;;;;;;;52.22;20.95;;;;;;;2.24;92.72;102065.97;5054432;28;20475;-55
2022/03/04 08:18:27;;;;;;;49.88;22.17;;;;;;;2.35;93.00;102063.66;5021250;28;20047;-56
2022/03/04 08:20:53;;;;;;;46.28;21.05;;;;;;;2.45;92.43;102064.03;5055333;28;20631;-57
2022/03/04 08:23:19;;;;;;;57.90;21.42;;;;;;;2.56;91.76;102064.34;5053766;28;20320;-56
2022/03/04 08:25:44;;;;;;;54.10;20.38;;;;;;;2.68;91.14;102072.53;5055055;28;20111;-56
2022/03/04 08:28:10;;;;;;;48.45;21.67;;;;;;;2.78;90.61;102074.63;5054365;28;20084;-56
2022/03/04 08:30:36;;;;;;;46.35;19.98;;;;;;;2.84;89.17;102070.81;5049321;28;20040;-56
2022/03/04 08:33:01;;;;;;;57.15;20.65;;;;;;;2.96;89.08;102074.59;5051703;28;20012;-56
2022/03/04 08:35:27;;;;;;;50.00;20.90;;;;;;;3.05;88.70;102075.88;5053770;28;20041;-56
2022/03/04 08:37:53;;;;;;;48.35;20.13;;;;;;;3.13;86.80;102081.63;5043696;28;20309;-56
2022/03/04 08:40:18;;;;;;;50.83;21.10;;;;;;;3.19;85.13;102075.97;5018475;28;20051;-56
2022/03/04 08:42:45;;;;;;;46.13;19.60;;;;;;;3.30;86.19;102080.72;5045371;28;20522;-56
2022/03/04 08:45:11;;;;;;;49.88;19.48;;;;;;;3.39;83.93;102090.75;5054131;28;20095;-56
2022/03/04 08:47:37;;;;;;;45.55;19.85;;;;;;;3.45;84.16;102081.66;5034283;28;20042;-56
2022/03/04 08:50:03;;;;;;;44.42;19.75;;;;;;;3.55;82.81;102088.13;5055019;28;20028;-57
2022/03/04 08:52:28;;;;;;;44.38;19.65;;;;;;;3.64;81.92;102094.69;5050161;28;20526;-57
2022/03/04 08:54:54;;;;;;;42.30;19.75;;;;;;;3.73;81.87;102095.03;5054821;28;20021;-56
2022/03/04 08:57:19;;;;;;;46.00;19.95;;;;;;;3.82;81.42;102092.81;5050656;28;20058;-57
2022/03/04 08:59:45;;;;;;;44.78;19.60;;;;;;;3.95;80.55;102095.63;5052578;28;20020;-57
2022/03/04 09:02:10;;;;;;;44.00;19.92;;;;;;;4.03;80.25;102098.69;5053021;28;20073;-58
2022/03/04 09:04:35;;;;;;;47.63;20.33;;;;;;;4.11;78.50;102099.94;5051698;28;20153;-56
2022/03/04 09:07:02;;;;;;;50.42;20.05;;;;;;;4.19;77.50;102088.06;5033930;28;20032;-56
2022/03/04 09:09:28;;;;;;;47.63;19.08;;;;;;;4.26;77.39;102102.63;5052714;28;20036;-56
2022/03/04 09:11:53;;;;;;;49.40;20.38;;;;;;;4.37;77.67;102091.44;5046970;28;20557;-55
2022/03/04 09:14:22;;;;;;;42.40;19.75;;;;;;;4.48;76.67;102092.50;5044975;28;20631;-56
2022/03/04 09:16:48;;;;;;;44.42;19.55;;;;;;;4.59;75.57;102089.22;5051045;28;20032;-56
2022/03/04 09:19:19;;;;;;;45.88;19.73;;;;;;;4.68;75.18;102090.47;5046350;28;20067;-56
2022/03/04 09:21:47;;;;;;;46.35;20.13;;;;;;;4.74;74.85;102082.16;5052554;28;20058;-57
2022/03/04 09:24:12;;;;;;;48.20;19.95;;;;;;;4.81;75.12;102082.66;5051832;28;20052;-57
2022/03/04 09:26:38;;;;;;;47.03;20.10;;;;;;;4.93;73.82;102083.69;5048119;28;20078;-55
2022/03/04 09:29:03;;;;;;;41.60;19.00;;;;;;;4.99;73.79;102085.94;5052083;28;20068;-55
2022/03/04 09:31:28;;;;;;;44.78;19.67;;;;;;;5.07;73.87;102075.75;5034672;28;20522;-55
2022/03/04 09:33:53;;;;;;;44.88;19.73;;;;;;;5.18;74.16;102068.00;5053798;28;20040;-54
2022/03/04 09:36:19;;;;;;;41.50;19.75;;;;;;;5.31;73.46;102072.50;5059692;28;20032;-55
2022/03/04 09:38:44;;;;;;;47.03;20.05;;;;;;;5.37;72.70;102066.84;5065443;28;20081;-55
2022/03/04 09:41:11;;;;;;;52.63;20.67;;;;;;;5.48;71.59;102071.44;5057247;28;20078;-55
2022/03/04 09:43:37;;;;;;;45.95;19.55;;;;;;;5.66;72.84;102072.91;5065214;28;20039;-56
2022/03/04 09:46:02;;;;;;;43.25;19.80;;;;;;;5.81;70.52;102079.03;5062667;28;20358;-55
2022/03/04 09:48:28;;;;;;;45.60;20.33;;;;;;;5.91;69.85;102071.34;5068792;28;20024;-56
2022/03/04 09:50:53;;;;;;;41.90;20.48;;;;;;;6.01;70.22;102067.16;5065423;28;20028;-56
2022/03/04 09:53:18;;;;;;;40.65;19.05;;;;;;;6.11;68.92;102064.72;5073081;28;20095;-56
2022/03/04 09:55:45;;;;;;;45.17;20.05;;;;;;;6.23;68.57;102073.69;5073572;28;20468;-56
2022/03/04 09:58:14;;;;;;;44.30;20.55;;;;;;;6.34;69.45;102065.84;5067292;28;20211;-56
2022/03/04 10:00:42;;;;;;;42.13;19.05;;;;;;;6.47;68.72;102065.88;5064353;28;20096;-55
2022/03/04 10:03:19;;;;;;;46.55;19.77;;;;;;;6.62;69.23;102074.59;5074422;28;20649;-56
2022/03/04 10:05:52;;;;;;;42.60;19.05;;;;;;;6.75;67.38;102079.91;5068662;28;20219;-56
2022/03/04 10:08:19;;;;;;;51.58;19.98;;;;;;;6.89;67.18;102077.16;5073015;28;20028;-56
2022/03/04 10:10:56;;;;;;;40.63;20.45;;;;;;;7.02;67.33;102078.00;5055804;28;20019;-56
2022/03/04 10:13:46;;;;;;;40.45;18.75;;;;;;;7.15;67.75;102083.31;5072967;28;20032;-56
2022/03/04 10:16:26;;;;;;;41.35;20.15;;;;;;;7.28;67.02;102081.47;5071543;28;20016;-55
2022/03/04 10:19:11;;;;;;;45.83;20.33;;;;;;;7.47;66.33;102086.31;5070053;28;20036;-55
2022/03/04 10:21:47;;;;;;;45.15;20.25;;;;;;;7.57;64.59;102083.00;5066134;28;20120;-56
2022/03/04 10:24:12;;;;;;;43.05;20.42;;;;;;;7.68;64.00;102096.38;5073360;28;20113;-56
2022/03/04 10:26:37;;;;;;;42.95;20.88;;;;;;;7.81;63.72;102089.19;5072960;28;20032;-56
2022/03/04 10:29:17;;;;;;;43.13;20.58;;;;;;;7.94;62.24;102086.50;5062376;28;20024;-56
2022/03/04 10:32:06;;;;;;;47.65;21.27;;;;;;;8.11;63.21;102085.25;5069515;28;20031;-57
2022/03/04 10:34:58;;;;;;;40.95;19.67;;;;;;;8.26;62.25;102080.56;5056048;28;20119;-57
2022/03/04 10:37:50;;;;;;;45.80;20.27;;;;;;;8.36;61.72;102078.91;5037994;28;20107;-55
2022/03/04 10:40:24;;;;;;;40.40;19.50;;;;;;;8.50;59.95;102080.56;5048317;28;20463;-55
2022/03/04 10:42:51;;;;;;;43.50;20.65;;;;;;;8.62;59.38;102078.75;5052218;28;20475;-55
2022/03/04 10:45:22;;;;;;;46.03;20.35;;;;;;;8.78;59.59;102081.94;5052129;28;20094;-55
2022/03/04 10:48:09;;;;;;;44.22;20.58;;;;;;;8.94;57.19;102078.94;5051846;28;20128;-55
2022/03/04 10:50:46;;;;;;;38.10;19.45;;;;;;;9.13;57.83;102069.47;5042919;28;20360;-55
2022/03/04 10:53:19;;;;;;;38.75;19.40;;;;;;;9.23;55.52;102083.81;5046483;28;20032;-56
2022/03/04 10:55:56;;;;;;;39.72;18.90;;;;;;;9.35;55.50;102079.28;5053469;28;20022;-56
2022/03/04 10:58:36;;;;;;;43.47;20.10;;;;;;;9.47;56.98;102066.78;5033635;28;20490;-55
2022/03/04 11:01:09;;;;;;;41.40;20.38;;;;;;;9.59;56.62;102065.81;5043978;28;20422;-56
2022/03/04 11:03:35;;;;;;;45.70;19.88;;;;;;;9.69;54.55;102080.09;5034722;28;20032;-55
2022/03/04 11:06:04;;;;;;;38.65;19.08;;;;;;;9.76;55.79;102075.13;5049634;28;20546;-56
2022/03/04 11:08:29;;;;;;;42.95;20.27;;;;;;;9.91;55.07;102072.97;5038381;28;20033;-55
2022/03/04 11:10:56;;;;;;;37.03;19.58;;;;;;;10.02;54.65;102064.94;5044409;28;20210;-55
2022/03/04 11:13:22;;;;;;;39.80;20.00;;;;;;;10.11;52.45;102070.50;5052812;28;20100;-55
2022/03/04 11:15:50;;;;;;;43.00;20.48;;;;;;;10.22;52.98;102070.47;5037103;28;20052;-55